Terminal Aerodrome Forecast
Issued by NWS Dallas/Fort Worth, TX

Home | Current Version | Previous Version | Text Only | Print | Product List | Glossary On
Versions: 1 2 3 4 5 6 7 8 9 10 11 12 13 14 15 16 17 18 19 20 21 22 23 24 25 26 27 28 29 30
224
FTUS44 KFWD 271120
TAFDFW
TAF
KDFW 271120Z 2712/2818 32010KT P6SM BKN018
      TEMPO 2712/2714 SCT025
     FM271500 33010KT P6SM FEW250
     FM280100 04006KT P6SM FEW250
     FM280900 08007KT P6SM SCT250
     FM281100 09007KT P6SM -RA BKN015 BKN250
     FM281500 13010KT P6SM -RA BKN008=

USA.gov is the U.S. government's official web portal to all federal, state and local government web resources and services.